Time;durP1;ratioP1;P1;durP2;ratioP2;P2;SDS_P1;SDS_P2;PMS_P1;PMS_P2;Temp;Humidity;BMP_temperature;BMP_pressure;BME280_temperature;BME280_humidity;BME280_pressure;Samples;Min_cycle;Max_cycle;Signal;HPM_P1;HPM_P2
2022/11/06 00:04:10;;;;;;;70.63;30.63;;;;;;;5.30;100.00;101097.02;5106307;56;1143118;-77
2022/11/06 00:09:20;;;;;;;84.07;32.25;;;;;;;5.27;100.00;101098.47;5085475;56;1141036;-76
2022/11/06 00:14:25;;;;;;;69.87;29.20;;;;;;;5.12;100.00;101094.78;5056451;57;1140905;-76
2022/11/06 00:19:31;;;;;;;60.70;27.80;;;;;;;5.03;100.00;101098.30;5098632;56;1141187;-77
2022/11/06 00:24:36;;;;;;;56.33;23.00;;;;;;;4.97;100.00;101099.88;5089933;56;1140954;-76
2022/11/06 00:29:42;;;;;;;46.57;18.90;;;;;;;4.95;100.00;101106.48;5064227;56;1140980;-77
2022/11/06 00:34:49;;;;;;;53.90;21.83;;;;;;;4.92;100.00;101104.00;5222739;55;1142907;-76
2022/11/06 00:39:54;;;;;;;47.93;24.03;;;;;;;4.90;100.00;101097.52;5229395;55;1140975;-76
2022/11/06 00:45:00;;;;;;;54.23;25.13;;;;;;;4.93;100.00;101098.69;5229358;55;1140850;-76
2022/11/06 00:50:07;;;;;;;50.93;20.47;;;;;;;4.92;100.00;101097.45;5229260;55;1141205;-76
2022/11/06 00:55:13;;;;;;;51.03;20.87;;;;;;;4.86;100.00;101098.59;5096860;56;1141055;-76
2022/11/06 01:00:19;;;;;;;37.83;19.57;;;;;;;4.82;100.00;101104.88;5170055;55;1140837;-77
2022/11/06 01:05:25;;;;;;;64.90;23.67;;;;;;;4.80;100.00;101099.31;5182155;55;1140976;-76
2022/11/06 01:10:31;;;;;;;50.17;21.27;;;;;;;4.84;100.00;101099.12;5159538;55;1142888;-76
2022/11/06 01:15:37;;;;;;;38.03;18.03;;;;;;;4.89;100.00;101100.20;5160627;55;1143069;-76
2022/11/06 01:20:43;;;;;;;43.90;19.90;;;;;;;4.88;100.00;101099.38;5134344;55;1140993;-76
2022/11/06 01:26:04;;;;;;;53.27;19.70;;;;;;;4.89;100.00;101096.27;5121117;56;1140817;-76
2022/11/06 01:31:13;;;;;;;39.63;18.45;;;;;;;4.81;100.00;101108.42;5093517;55;1140981;-76
2022/11/06 01:36:21;;;;;;;36.17;17.53;;;;;;;4.71;100.00;101107.59;5179910;55;1178659;-76
2022/11/06 01:41:31;;;;;;;35.87;15.00;;;;;;;4.64;100.00;101104.83;5153853;55;1140841;-76
2022/11/06 01:46:37;;;;;;;34.40;15.80;;;;;;;4.62;100.00;101106.66;5163186;55;1140844;-76
2022/11/06 01:51:53;;;;;;;36.10;16.17;;;;;;;4.60;100.00;101103.65;5157758;55;1142975;-76
2022/11/06 01:57:02;;;;;;;67.73;27.13;;;;;;;4.63;100.00;101102.67;5123628;55;1140977;-76
2022/11/06 09:53:55;;;;;;;16.83;7.70;;;;;;;7.81;100.00;101069.45;5243570;54;46128;-79
2022/11/06 09:59:05;;;;;;;11.30;6.20;;;;;;;7.92;100.00;101074.13;4807883;59;1136872;-78
2022/11/06 10:04:34;;;;;;;11.33;6.40;;;;;;;8.06;100.00;101068.44;4997033;56;1141008;-80
2022/11/06 10:09:40;;;;;;;13.20;6.13;;;;;;;8.22;100.00;101068.39;5042845;57;1141150;-79
2022/11/06 10:14:59;;;;;;;8.75;5.40;;;;;;;8.30;100.00;101054.74;5045805;57;1140985;-79
2022/11/06 10:20:21;;;;;;;8.93;5.07;;;;;;;8.42;100.00;101053.56;4989030;56;1139024;-78
2022/11/06 10:25:37;;;;;;;25.90;9.07;;;;;;;8.53;100.00;101042.86;4961608;57;1138857;-76
2022/11/06 10:31:12;;;;;;;20.77;5.85;;;;;;;8.67;100.00;101033.64;4974274;56;1141045;-77
2022/11/06 10:36:38;;;;;;;12.00;4.87;;;;;;;8.83;100.00;101040.14;5020914;57;1140870;-76
2022/11/06 10:41:49;;;;;;;17.27;5.97;;;;;;;8.93;100.00;101035.50;4998319;57;1141058;-76
2022/11/06 10:46:59;;;;;;;13.85;5.22;;;;;;;9.09;100.00;101031.42;4965156;57;1141214;-77
2022/11/06 10:52:27;;;;;;;13.97;5.53;;;;;;;9.29;100.00;101029.70;4959535;57;1141006;-78
2022/11/06 10:57:46;;;;;;;15.27;4.83;;;;;;;9.41;100.00;101020.14;4965156;57;1140796;-78
2022/11/06 11:03:01;;;;;;;10.03;4.75;;;;;;;9.56;100.00;101010.37;4963415;57;1140768;-78
2022/11/06 11:08:16;;;;;;;9.20;4.17;;;;;;;9.74;100.00;101003.41;4962958;57;1140965;-77
2022/11/06 11:13:22;;;;;;;14.17;4.70;;;;;;;9.90;100.00;100987.85;4955092;57;1138699;-77
2022/11/06 11:18:32;;;;;;;12.13;5.70;;;;;;;10.09;100.00;100975.06;4979904;57;1140825;-76
2022/11/06 11:23:39;;;;;;;15.63;4.92;;;;;;;10.35;100.00;100979.46;5029142;56;1143246;-78
2022/11/06 11:28:57;;;;;;;10.03;4.30;;;;;;;10.53;100.00;100975.54;5041424;56;1143022;-77
2022/11/06 11:34:08;;;;;;;11.00;4.30;;;;;;;10.75;100.00;100974.85;5044339;56;1142994;-77
2022/11/06 11:39:17;;;;;;;10.20;3.95;;;;;;;10.94;100.00;100963.80;4985444;56;1143033;-77
2022/11/06 11:44:24;;;;;;;18.50;8.97;;;;;;;11.05;100.00;100958.58;4931574;59;1142939;-76
2022/11/06 11:49:33;;;;;;;14.50;7.43;;;;;;;11.17;100.00;100943.11;4931352;59;1143076;-76
2022/11/06 11:54:40;;;;;;;13.03;3.98;;;;;;;11.38;100.00;100942.50;4938875;57;1143297;-78
2022/11/06 11:59:56;;;;;;;10.30;4.13;;;;;;;11.51;100.00;100927.38;4961654;57;1143027;-77
2022/11/06 12:05:14;;;;;;;9.77;4.07;;;;;;;11.67;100.00;100929.72;4927932;57;1143199;-77
2022/11/06 12:10:31;;;;;;;8.77;4.33;;;;;;;11.73;100.00;100926.62;4941061;57;1141471;-78
2022/11/06 12:15:47;;;;;;;11.70;3.97;;;;;;;11.74;100.00;100926.51;4821954;57;1140975;-75
2022/11/06 12:21:00;;;;;;;14.45;5.33;;;;;;;11.99;100.00;100924.17;4829230;58;1143320;-76
2022/11/06 12:26:25;;;;;;;15.40;3.90;;;;;;;12.16;100.00;100924.19;4854903;57;1143361;-78
2022/11/06 12:31:57;;;;;;;7.40;3.53;;;;;;;12.36;100.00;100925.30;4919775;58;1143211;-76
2022/11/06 12:37:41;;;;;;;6.03;3.20;;;;;;;12.60;100.00;100926.84;4753143;59;1141153;-77
2022/11/06 12:42:49;;;;;;;;;;;;;;;12.71;97.47;100918.50;4762130;59;1141033;-76
2022/11/06 12:48:08;;;;;;;6.83;3.37;;;;;;;12.82;100.00;100909.22;4767532;60;976132;-78
2022/11/06 12:53:36;;;;;;;8.67;3.23;;;;;;;12.96;94.67;100923.06;4741804;60;1138919;-78
2022/11/06 12:58:52;;;;;;;4.70;3.20;;;;;;;13.06;98.36;100917.83;4819410;58;1139118;-76
2022/11/06 13:04:22;;;;;;;7.20;3.80;;;;;;;13.26;93.69;100911.77;4861535;58;1138875;-77
2022/11/06 13:09:38;;;;;;;8.35;2.80;;;;;;;13.46;93.96;100911.42;4854364;58;1138899;-76
2022/11/06 13:15:09;;;;;;;7.47;3.43;;;;;;;13.78;88.35;100906.55;4849603;58;1139154;-76
2022/11/06 13:20:28;;;;;;;10.03;3.67;;;;;;;14.27;89.34;100904.03;4905617;58;1138972;-78
2022/11/06 13:26:02;;;;;;;15.53;5.43;;;;;;;14.83;87.66;100902.20;4932506;58;1141098;-78
2022/11/06 13:31:11;;;;;;;12.17;4.70;;;;;;;14.89;84.23;100902.16;4920576;57;1141149;-76
2022/11/06 13:36:19;;;;;;;13.70;4.50;;;;;;;15.30;87.03;100886.41;5095090;56;1140915;-76
2022/11/06 13:41:32;;;;;;;8.57;4.03;;;;;;;15.75;82.31;100895.52;5091398;56;1141222;-76
2022/11/06 13:46:57;;;;;;;7.50;3.40;;;;;;;15.74;82.55;100888.99;5063527;56;1138807;-78
2022/11/06 13:52:28;;;;;;;10.30;3.67;;;;;;;15.66;81.01;100882.22;5010897;57;1138785;-77
2022/11/06 13:57:57;;;;;;;8.70;3.47;;;;;;;15.92;82.65;100877.94;5031279;56;1141296;-78
2022/11/06 14:03:14;;;;;;;8.27;3.73;;;;;;;16.03;80.63;100871.12;5116764;56;1138793;-76
2022/11/06 14:08:30;;;;;;;25.03;11.83;;;;;;;15.37;82.58;100867.55;5054303;55;1138797;-78
2022/11/06 14:13:37;;;;;;;12.77;4.67;;;;;;;14.33;84.42;100858.27;5097970;55;1142928;-79
2022/11/06 14:18:43;;;;;;;7.60;4.15;;;;;;;13.72;87.58;100863.58;5095795;56;1140900;-79
2022/11/06 14:24:17;;;;;;;24.30;10.68;;;;;;;13.22;88.14;100862.52;5062260;56;1138933;-80
2022/11/06 14:29:31;;;;;;;11.65;4.62;;;;;;;12.91;90.04;100866.83;5124852;55;1142975;-79
2022/11/06 14:34:42;;;;;;;21.37;9.83;;;;;;;12.73;90.90;100866.14;5050274;56;1140862;-78
2022/11/06 14:40:02;;;;;;;21.43;11.03;;;;;;;12.52;92.12;100858.13;5117562;56;1141233;-80
2022/11/06 14:45:12;;;;;;;17.37;9.47;;;;;;;12.33;92.84;100855.61;4960827;57;1143169;-79
2022/11/06 14:50:28;;;;;;;18.83;9.40;;;;;;;12.14;93.91;100858.02;5006815;56;1140960;-76
2022/11/06 14:55:43;;;;;;;53.43;18.00;;;;;;;12.02;94.92;100863.45;5041814;57;1140925;-77
2022/11/06 15:01:11;;;;;;;31.20;10.98;;;;;;;11.88;95.46;100868.50;4980024;57;1143259;-78
2022/11/06 15:06:21;;;;;;;20.67;7.83;;;;;;;11.68;95.83;100864.69;5005456;57;1163381;-77
2022/11/06 15:11:43;;;;;;;27.53;11.87;;;;;;;11.42;96.42;100858.74;5012602;57;1256655;-77
2022/11/06 15:16:54;;;;;;;17.80;7.07;;;;;;;11.17;97.12;100856.23;4965907;58;1142944;-76
2022/11/06 15:22:17;;;;;;;22.10;8.10;;;;;;;10.99;97.94;100849.20;4997185;57;1140984;-78
2022/11/06 15:27:30;;;;;;;24.97;11.07;;;;;;;10.86;98.89;100852.36;5047395;56;1140837;-79
2022/11/06 15:32:41;;;;;;;19.87;8.50;;;;;;;10.71;99.65;100858.30;5032888;57;1143004;-76
2022/11/06 15:37:57;;;;;;;65.57;31.93;;;;;;;10.55;100.00;100848.45;5094420;57;1141067;-75
2022/11/06 15:43:20;;;;;;;35.30;15.47;;;;;;;10.35;100.00;100844.62;5012793;57;1144999;-75
2022/11/06 15:48:27;;;;;;;65.85;26.95;;;;;;;10.18;100.00;100841.84;5016157;57;1144988;-74
2022/11/06 15:53:35;;;;;;;21.77;10.60;;;;;;;10.11;100.00;100823.84;5033379;56;1145210;-73
2022/11/06 15:58:42;;;;;;;23.10;9.40;;;;;;;10.05;100.00;100825.62;5043518;56;1145198;-73
2022/11/06 16:03:53;;;;;;;65.00;40.15;;;;;;;10.01;100.00;100837.34;4967229;56;1142931;-73
2022/11/06 16:09:00;;;;;;;158.93;83.90;;;;;;;9.94;100.00;100836.91;5022734;56;1145160;-75
2022/11/06 16:14:11;;;;;;;52.40;26.00;;;;;;;9.87;100.00;100836.99;5011407;57;1144951;-75
2022/11/06 16:19:33;;;;;;;46.67;20.37;;;;;;;9.82;100.00;100841.27;4971502;56;1143147;-75
2022/11/06 16:24:59;;;;;;;48.67;20.17;;;;;;;9.77;100.00;100845.20;4973312;57;1143052;-74
2022/11/06 16:30:07;;;;;;;41.60;19.10;;;;;;;9.64;100.00;100843.84;4942334;57;1143203;-65
2022/11/06 16:35:36;;;;;;;64.47;30.17;;;;;;;9.45;100.00;100821.84;5009531;57;1143040;-63
2022/11/06 16:40:51;;;;;;;61.60;29.37;;;;;;;9.29;100.00;100817.70;5013785;56;1143097;-68
2022/11/06 16:46:09;;;;;;;49.95;21.02;;;;;;;9.20;100.00;100808.59;5076383;56;1143028;-64
2022/11/06 16:51:31;;;;;;;34.73;14.10;;;;;;;9.08;100.00;100802.34;5081427;56;1143113;-69
2022/11/06 16:56:38;;;;;;;35.00;13.77;;;;;;;8.97;100.00;100798.73;5070630;57;1142971;-64
2022/11/06 17:01:48;;;;;;;44.43;16.03;;;;;;;8.89;100.00;100795.27;5081301;56;1143079;-65
2022/11/06 17:06:55;;;;;;;46.13;20.27;;;;;;;8.86;100.00;100787.55;5116522;56;1142945;-66
2022/11/06 17:12:03;;;;;;;46.50;21.37;;;;;;;8.79;100.00;100789.77;5080719;56;1143152;-67
2022/11/06 17:17:30;;;;;;;38.57;16.50;;;;;;;8.71;100.00;100780.66;5088247;56;1143195;-68
2022/11/06 17:22:31;;;;;;;101.77;65.27;;;;;;;8.60;100.00;100777.89;5140100;56;1143075;-69
2022/11/06 17:27:37;;;;;;;41.93;16.03;;;;;;;8.58;100.00;100778.45;5079275;56;1145173;-65
2022/11/06 17:32:43;;;;;;;151.00;103.43;;;;;;;8.55;100.00;100775.57;5168306;55;1143180;-66
2022/11/06 17:37:48;;;;;;;31.77;16.43;;;;;;;8.51;100.00;100783.30;5168437;55;1156718;-68
2022/11/06 17:42:54;;;;;;;29.85;14.73;;;;;;;8.46;100.00;100778.31;5097403;56;1143040;-68
2022/11/06 17:48:01;;;;;;;28.67;11.93;;;;;;;8.43;100.00;100776.34;4988321;57;1142987;-67
2022/11/06 17:53:07;;;;;;;40.17;18.93;;;;;;;8.35;100.00;100774.22;4993178;57;1143028;-69
2022/11/06 17:58:13;;;;;;;33.57;14.67;;;;;;;8.23;100.00;100775.44;4984775;57;1143244;-66
2022/11/06 18:03:21;;;;;;;29.87;12.13;;;;;;;8.14;100.00;100774.22;5068689;56;1143105;-65
2022/11/06 18:08:26;;;;;;;33.70;15.70;;;;;;;8.12;100.00;100774.78;5056321;56;1142972;-67
2022/11/06 18:13:33;;;;;;;41.77;19.63;;;;;;;8.01;100.00;100775.47;4969563;56;1143218;-67
2022/11/06 18:18:39;;;;;;;54.93;23.03;;;;;;;7.93;100.00;100777.75;4927911;57;1143003;-69
2022/11/06 18:23:45;;;;;;;34.07;16.10;;;;;;;7.91;100.00;100773.52;4893544;58;1143152;-70
2022/11/06 18:28:51;;;;;;;47.83;18.37;;;;;;;7.88;100.00;100783.77;4861351;58;1142961;-69
2022/11/06 18:33:57;;;;;;;34.98;17.12;;;;;;;7.83;100.00;100783.67;5020391;56;1143038;-69
2022/11/06 18:39:04;;;;;;;55.30;21.27;;;;;;;7.73;100.00;100788.20;5026558;57;1143041;-66
2022/11/06 18:44:10;;;;;;;58.20;23.00;;;;;;;7.66;100.00;100789.97;5027942;57;1142907;-68
2022/11/06 18:49:16;;;;;;;61.73;20.40;;;;;;;7.66;100.00;100787.34;5034055;56;1142907;-68
2022/11/06 18:54:24;;;;;;;57.17;22.67;;;;;;;7.63;100.00;100788.86;5015558;57;1142994;-69
2022/11/06 18:59:31;;;;;;;47.73;19.50;;;;;;;7.56;100.00;100792.80;5067166;56;1142984;-66
2022/11/06 19:04:36;;;;;;;50.33;20.90;;;;;;;7.53;100.00;100783.30;5079199;56;1143081;-70
2022/11/06 19:09:42;;;;;;;52.50;21.80;;;;;;;7.54;100.00;100784.14;5107669;56;1142789;-67
2022/11/06 19:14:48;;;;;;;26.23;14.03;;;;;;;7.49;100.00;100780.46;5108184;56;1152828;-66
2022/11/06 19:19:54;;;;;;;30.92;14.83;;;;;;;7.47;100.00;100778.42;5100209;56;1143090;-65
2022/11/06 19:25:00;;;;;;;37.90;18.07;;;;;;;7.45;100.00;100771.08;5076485;56;1143358;-66
2022/11/06 19:30:06;;;;;;;36.33;17.00;;;;;;;7.41;100.00;100769.56;5083985;56;1142903;-67
2022/11/06 19:35:14;;;;;;;39.23;17.03;;;;;;;7.35;100.00;100768.14;5083186;56;1143052;-66
2022/11/06 19:40:20;;;;;;;32.77;14.17;;;;;;;7.27;100.00;100762.98;5150767;56;1142850;-69
2022/11/06 19:45:26;;;;;;;28.63;13.17;;;;;;;7.19;100.00;100749.42;5150619;56;1142828;-64
2022/11/06 19:50:32;;;;;;;37.70;16.70;;;;;;;7.20;100.00;100757.69;5113733;56;1142957;-66
2022/11/06 19:55:40;;;;;;;27.23;14.17;;;;;;;7.15;100.00;100754.05;5150939;56;1142969;-69
2022/11/06 20:00:47;;;;;;;33.47;14.70;;;;;;;7.07;100.00;100749.69;5150763;56;1143194;-67
2022/11/06 20:05:54;;;;;;;28.77;13.43;;;;;;;7.05;100.00;100748.46;5132782;56;1143385;-67
2022/11/06 20:11:13;;;;;;;34.80;15.65;;;;;;;7.01;100.00;100746.98;5081916;56;1143040;-66
2022/11/06 20:16:21;;;;;;;37.53;15.80;;;;;;;6.98;100.00;100746.30;5079169;56;1143076;-69
2022/11/06 20:21:28;;;;;;;35.10;14.70;;;;;;;6.92;100.00;100747.50;5026023;57;1143133;-64
2022/11/06 20:26:34;;;;;;;28.57;13.50;;;;;;;6.91;100.00;100743.64;5020351;57;1143112;-66
2022/11/06 20:31:43;;;;;;;37.63;14.90;;;;;;;6.87;100.00;100733.80;5020339;56;1143207;-67
2022/11/06 20:36:50;;;;;;;33.02;14.20;;;;;;;6.82;100.00;100738.47;4964565;57;1241736;-67
2022/11/06 20:41:58;;;;;;;26.23;13.30;;;;;;;6.75;100.00;100735.80;5029496;57;1140896;-66
2022/11/06 20:47:04;;;;;;;32.17;13.80;;;;;;;6.72;100.00;100729.44;5029948;57;1143101;-68
2022/11/06 20:52:11;;;;;;;32.63;16.60;;;;;;;6.69;100.00;100727.83;4969782;57;1143717;-65
2022/11/06 20:57:18;;;;;;;32.73;15.77;;;;;;;6.62;100.00;100723.84;4946791;57;1143033;-66
2022/11/06 21:02:24;;;;;;;42.90;16.40;;;;;;;6.59;100.00;100731.91;5019694;56;1140957;-68
2022/11/06 21:07:34;;;;;;;32.37;14.70;;;;;;;6.55;100.00;100727.78;5007828;56;1140917;-70
2022/11/06 21:12:40;;;;;;;28.00;14.93;;;;;;;6.51;100.00;100739.39;5024732;56;1142988;-64
2022/11/06 21:17:46;;;;;;;32.00;17.87;;;;;;;6.55;100.00;100743.55;5031065;56;1142969;-68
2022/11/06 21:22:52;;;;;;;47.73;21.07;;;;;;;6.60;100.00;100743.27;5038941;57;1143184;-69
2022/11/06 21:27:58;;;;;;;42.40;19.27;;;;;;;6.54;100.00;100740.54;5024539;57;1143130;-67
2022/11/06 21:33:04;;;;;;;34.45;14.93;;;;;;;6.43;100.00;100731.55;5026420;56;1141009;-68
2022/11/06 21:38:09;;;;;;;33.77;14.90;;;;;;;6.30;100.00;100730.94;4855208;58;1140979;-67
2022/11/06 21:43:15;;;;;;;43.33;18.60;;;;;;;6.20;100.00;100719.27;4896306;58;1143127;-66
2022/11/06 21:48:20;;;;;;;38.77;17.73;;;;;;;6.13;100.00;100719.22;4945381;58;1143018;-64
2022/11/06 21:58:55;;;;;;;29.27;14.13;;;;;;;5.99;100.00;100713.89;4986330;58;1140919;-66
2022/11/06 22:04:01;;;;;;;30.34;13.76;;;;;;;5.99;100.00;100709.48;4961656;58;1143061;-65
2022/11/06 22:09:07;;;;;;;36.17;16.17;;;;;;;6.05;100.00;100709.62;5004088;57;1142995;-66
2022/11/06 22:14:16;;;;;;;26.93;14.73;;;;;;;6.01;100.00;100698.91;4965207;57;1140958;-68
2022/11/06 22:19:21;;;;;;;32.40;12.50;;;;;;;5.93;100.00;100698.03;5030912;57;1140968;-65
2022/11/06 22:24:27;;;;;;;32.57;13.93;;;;;;;5.90;100.00;100689.02;5003362;57;1143380;-67
2022/11/06 22:29:33;;;;;;;31.10;14.90;;;;;;;5.89;100.00;100681.22;5005727;56;1143086;-65
2022/11/06 22:34:39;;;;;;;44.03;15.50;;;;;;;5.78;100.00;100672.61;5010633;57;1142813;-68
2022/11/06 22:39:44;;;;;;;37.70;17.27;;;;;;;5.81;100.00;100676.34;4916970;58;1140877;-67
2022/11/06 22:44:50;;;;;;;35.37;15.63;;;;;;;5.80;100.00;100670.75;4907157;58;1140864;-67
2022/11/06 22:49:56;;;;;;;37.93;14.53;;;;;;;5.77;100.00;100669.60;4962195;58;1151107;-66
2022/11/06 22:55:01;;;;;;;29.55;14.60;;;;;;;5.78;100.00;100663.89;4961335;58;1143061;-64
2022/11/06 23:00:09;;;;;;;29.92;14.80;;;;;;;5.76;100.00;100648.69;4962082;57;1143021;-66
2022/11/06 23:05:15;;;;;;;38.17;14.90;;;;;;;5.70;100.00;100640.67;5011553;57;1141045;-66
2022/11/06 23:10:27;;;;;;;30.73;14.30;;;;;;;5.66;100.00;100641.77;5022037;57;1142970;-68
2022/11/06 23:15:28;;;;;;;32.10;13.77;;;;;;;5.65;100.00;100636.17;4957739;57;1142874;-66
2022/11/06 23:20:34;;;;;;;34.92;18.60;;;;;;;5.62;100.00;100632.40;5024017;56;1142863;-68
2022/11/06 23:25:40;;;;;;;41.57;18.10;;;;;;;5.60;100.00;100632.95;5055136;56;1140819;-68
2022/11/06 23:30:45;;;;;;;30.80;15.25;;;;;;;5.60;100.00;100624.61;5115708;55;1142887;-67
2022/11/06 23:35:51;;;;;;;33.47;14.67;;;;;;;5.57;100.00;100626.55;5012900;56;1210254;-66
2022/11/06 23:41:41;;;;;;;33.55;16.23;;;;;;;5.60;100.00;100615.89;5049527;57;1142824;-68
2022/11/06 23:46:04;;;;;;;43.45;18.67;;;;;;;5.55;100.00;100602.17;5044276;57;1140810;-66
2022/11/06 23:51:10;;;;;;;30.97;15.00;;;;;;;5.48;100.00;100602.15;4994748;57;1140737;-67
2022/11/06 23:56:16;;;;;;;34.53;16.30;;;;;;;5.45;100.00;100599.69;4966545;58;1143070;-65
